createdAt,value
2022-08-09T00:00:11.798Z,6.30
2022-08-09T00:02:42.917Z,3.90
2022-08-09T00:06:19.654Z,8.50
2022-08-09T00:08:31.348Z,10.20
2022-08-09T00:11:05.829Z,10.20
2022-08-09T00:14:03.893Z,6.80
2022-08-09T00:16:36.583Z,10.40
2022-08-09T00:19:09.449Z,7.60
2022-08-09T00:21:56.217Z,7.90
2022-08-09T00:24:27.824Z,9.10
2022-08-09T00:26:59.629Z,7.40
2022-08-09T00:29:39.517Z,7.10
2022-08-09T00:32:35.696Z,6.30
2022-08-09T00:35:08.712Z,11.20
2022-08-09T00:37:41.022Z,10.80
2022-08-09T00:40:17.201Z,7.00
2022-08-09T00:44:11.019Z,6.00
2022-08-09T00:45:38.351Z,8.60
2022-08-09T00:48:21.472Z,10.40
2022-08-09T00:50:52.782Z,8.50
2022-08-09T00:53:24.028Z,12.90
2022-08-09T00:56:04.776Z,10.10
2022-08-09T00:58:40.442Z,7.10
2022-08-09T01:01:56.035Z,8.90
2022-08-09T01:04:38.528Z,10.60
2022-08-09T01:07:17.106Z,5.40
2022-08-09T01:09:53.855Z,7.40
2022-08-09T01:12:34.005Z,6.90
2022-08-09T01:15:17.679Z,11.30
2022-08-09T01:20:38.375Z,8.10
2022-08-09T01:24:00.634Z,6.50
2022-08-09T01:26:31.211Z,10.40
2022-08-09T01:29:05.014Z,6.20
2022-08-09T01:32:31.281Z,5.60
2022-08-09T01:34:31.852Z,10.30
2022-08-09T01:37:06.555Z,11.90
2022-08-09T01:39:40.829Z,10.10
2022-08-09T01:42:12.407Z,9.10
2022-08-09T01:44:45.818Z,4.50
2022-08-09T01:47:19.666Z,10.10
2022-08-09T01:49:54.934Z,6.60
2022-08-09T01:52:27.721Z,7.50
2022-08-09T01:55:04.106Z,7.80
2022-08-09T01:57:45.722Z,7.60
2022-08-09T02:00:35.691Z,8.40
2022-08-09T02:03:13.542Z,6.80
2022-08-09T02:06:03.617Z,6.00
2022-08-09T02:08:58.978Z,8.60
2022-08-09T02:11:41.906Z,7.40
2022-08-09T02:14:26.281Z,5.50
2022-08-09T02:17:59.379Z,5.90
2022-08-09T02:19:54.846Z,6.80
2022-08-09T02:22:38.614Z,8.20
2022-08-09T02:25:17.044Z,7.60
2022-08-09T02:28:00.533Z,7.40
2022-08-09T02:30:41.882Z,7.70
2022-08-09T02:33:19.286Z,7.10
2022-08-09T02:36:03.446Z,6.50
2022-08-09T02:38:47.481Z,6.00
2022-08-09T02:41:25.850Z,6.50
2022-08-09T02:44:10.329Z,11.70
2022-08-09T02:46:47.315Z,9.30
2022-08-09T02:49:38.356Z,9.30
2022-08-09T02:52:18.037Z,8.60
2022-08-09T02:54:54.811Z,4.80
2022-08-09T02:57:40.315Z,7.80
2022-08-09T03:00:25.178Z,7.70
2022-08-09T03:03:00.655Z,7.30
2022-08-09T03:05:34.543Z,6.90
2022-08-09T03:08:08.753Z,6.70
2022-08-09T03:10:42.089Z,9.10
2022-08-09T03:13:16.043Z,7.50
2022-08-09T03:16:06.234Z,6.20
2022-08-09T03:18:38.278Z,6.00
2022-08-09T03:21:11.635Z,7.20
2022-08-09T03:24:03.755Z,7.00
2022-08-09T03:26:44.885Z,5.60
2022-08-09T03:29:23.223Z,6.80
2022-08-09T03:32:00.419Z,9.10
2022-08-09T03:34:31.055Z,6.40
2022-08-09T03:37:10.765Z,7.40
2022-08-09T03:39:56.532Z,6.30
2022-08-09T03:42:30.747Z,6.50
2022-08-09T03:45:01.535Z,7.70
2022-08-09T03:47:36.707Z,5.40
2022-08-09T03:50:18.850Z,6.40
2022-08-09T03:53:03.173Z,8.00
2022-08-09T03:55:36.140Z,5.10
2022-08-09T03:58:16.439Z,5.60
2022-08-09T04:00:48.070Z,7.10
2022-08-09T04:03:24.582Z,6.60
2022-08-09T04:06:09.114Z,5.80
2022-08-09T04:08:42.395Z,5.70
2022-08-09T04:11:17.626Z,8.60
2022-08-09T04:15:00.322Z,7.50
2022-08-09T04:16:38.615Z,6.80
2022-08-09T04:19:11.072Z,6.30
2022-08-09T04:21:46.312Z,4.00
2022-08-09T04:24:17.875Z,4.30
2022-08-09T04:26:48.250Z,5.90
2022-08-09T04:29:19.676Z,7.90
2022-08-09T04:31:51.364Z,4.10
2022-08-09T04:34:30.624Z,5.80
2022-08-09T04:37:02.805Z,6.90
2022-08-09T04:39:33.522Z,9.80
2022-08-09T04:42:12.964Z,9.40
2022-08-09T04:44:49.072Z,7.90
2022-08-09T04:47:20.135Z,5.30
2022-08-09T04:49:54.739Z,9.70
2022-08-09T04:52:28.514Z,3.80
2022-08-09T04:55:00.595Z,7.40
2022-08-09T04:57:59.432Z,4.60
2022-08-09T05:00:22.667Z,5.70
2022-08-09T05:02:56.034Z,5.50
2022-08-09T05:05:32.230Z,5.70
2022-08-09T05:08:18.090Z,6.80
2022-08-09T05:10:48.835Z,4.30
2022-08-09T05:13:19.430Z,7.10
2022-08-09T05:15:56.858Z,5.50
2022-08-09T05:18:55.272Z,5.00
2022-08-09T05:21:24.729Z,5.90
2022-08-09T05:24:02.108Z,3.80
2022-08-09T05:26:37.211Z,4.70
2022-08-09T05:29:21.913Z,4.50
2022-08-09T05:31:57.327Z,4.10
2022-08-09T05:34:31.731Z,5.20
2022-08-09T05:37:06.715Z,3.40
2022-08-09T05:39:43.736Z,4.40
2022-08-09T05:42:21.406Z,6.40
2022-08-09T05:44:59.984Z,5.30
2022-08-09T05:47:30.264Z,4.30
2022-08-09T05:52:54.127Z,5.40
2022-08-09T05:55:25.502Z,3.70
2022-08-09T05:57:58.314Z,4.40
2022-08-09T06:00:32.865Z,3.70
2022-08-09T06:03:10.707Z,2.80
2022-08-09T06:05:49.979Z,5.40
2022-08-09T06:08:25.383Z,5.10
2022-08-09T06:10:57.107Z,5.20
2022-08-09T06:13:33.582Z,6.40
2022-08-09T06:16:05.686Z,5.00
2022-08-09T06:18:37.245Z,4.50
2022-08-09T06:21:08.625Z,10.00
2022-08-09T06:23:58.597Z,3.90
2022-08-09T06:26:31.571Z,3.50
2022-08-09T06:29:05.204Z,5.00
2022-08-09T06:31:39.213Z,6.20
2022-08-09T06:34:10.877Z,6.30
2022-08-09T06:36:43.762Z,2.30
2022-08-09T06:39:14.282Z,3.70
2022-08-09T06:42:09.244Z,3.30
2022-08-09T06:44:37.445Z,2.90
2022-08-09T06:47:09.624Z,3.50
2022-08-09T06:50:11.343Z,3.30
2022-08-09T06:52:30.285Z,2.60
2022-08-09T06:55:00.582Z,3.40
2022-08-09T06:58:01.228Z,4.80
2022-08-09T07:00:51.799Z,3.40
2022-08-09T07:03:27.815Z,5.50
2022-08-09T07:06:03.710Z,4.50
2022-08-09T07:08:37.402Z,2.80
2022-08-09T07:11:12.613Z,6.10
2022-08-09T07:14:00.264Z,3.50
2022-08-09T07:16:42.302Z,4.40
2022-08-09T07:19:23.543Z,6.40
2022-08-09T07:21:56.987Z,6.20
2022-08-09T07:24:32.919Z,2.20
2022-08-09T07:27:27.172Z,5.80
2022-08-09T07:30:03.157Z,4.20
2022-08-09T07:32:34.548Z,2.40
2022-08-09T07:35:11.478Z,2.80
2022-08-09T07:37:45.775Z,4.10
2022-08-09T07:40:25.152Z,4.00
2022-08-09T07:43:00.295Z,3.40
2022-08-09T07:45:39.097Z,2.90
2022-08-09T07:48:28.604Z,2.80
2022-08-09T07:51:08.991Z,2.90
2022-08-09T07:54:04.956Z,6.60
2022-08-09T07:56:49.298Z,4.00
2022-08-09T07:59:34.682Z,3.40
2022-08-09T08:02:13.133Z,3.60
2022-08-09T08:04:53.568Z,1.90
2022-08-09T08:08:44.668Z,3.40
2022-08-09T08:10:14.685Z,7.00
2022-08-09T08:12:48.656Z,3.70
2022-08-09T08:15:23.211Z,6.50
2022-08-09T08:17:58.577Z,2.10
2022-08-09T08:20:32.742Z,2.00
2022-08-09T08:23:16.137Z,2.00
2022-08-09T08:25:48.547Z,2.10
2022-08-09T08:28:31.934Z,4.60
2022-08-09T08:31:13.970Z,4.20
2022-08-09T08:33:53.997Z,1.40
2022-08-09T08:36:29.585Z,1.50
2022-08-09T08:39:01.207Z,3.20
2022-08-09T08:41:50.653Z,2.70
2022-08-09T08:44:29.059Z,4.10
2022-08-09T08:47:04.509Z,3.40
2022-08-09T08:49:48.291Z,2.60
2022-08-09T08:55:15.051Z,2.90
2022-08-09T08:57:57.402Z,3.70
2022-08-09T09:00:30.383Z,4.30
2022-08-09T09:03:08.773Z,1.60
2022-08-09T09:06:01.233Z,1.30
2022-08-09T09:08:41.028Z,2.00
2022-08-09T09:11:13.920Z,4.30
2022-08-09T09:13:57.620Z,4.00
2022-08-09T09:16:33.763Z,3.50
2022-08-09T09:19:37.508Z,5.90
2022-08-09T09:22:15.936Z,1.80
2022-08-09T09:24:49.132Z,2.00
2022-08-09T09:27:22.135Z,4.60
2022-08-09T09:30:34.573Z,3.80
2022-08-09T09:33:16.089Z,2.20
2022-08-09T09:36:01.455Z,4.50
2022-08-09T09:38:45.565Z,4.80
2022-08-09T09:41:32.585Z,2.30
2022-08-09T09:44:12.288Z,4.00
2022-08-09T09:46:51.473Z,2.60
2022-08-09T09:49:49.882Z,2.10
2022-08-09T09:55:28.469Z,4.60
2022-08-09T09:58:17.435Z,5.30
2022-08-09T10:00:54.247Z,5.00
2022-08-09T10:03:44.298Z,3.20
2022-08-09T10:06:15.083Z,7.40
2022-08-09T10:08:57.329Z,10.50
2022-08-09T10:11:59.488Z,11.80
2022-08-09T10:14:27.463Z,5.80
2022-08-09T10:17:40.649Z,35.60
2022-08-09T10:20:02.325Z,4.40
2022-08-09T10:22:36.535Z,5.30
2022-08-09T10:25:12.478Z,9.10
2022-08-09T10:27:57.122Z,10.60
2022-08-09T10:33:29.543Z,30.70
2022-08-09T10:36:12.354Z,3.30
2022-08-09T10:38:55.919Z,15.40
2022-08-09T10:41:28.242Z,7.80
2022-08-09T10:44:01.912Z,3.40
2022-08-09T10:47:00.513Z,1.40
2022-08-09T10:49:51.251Z,3.10
2022-08-09T10:52:42.825Z,2.90
2022-08-09T10:55:26.083Z,3.20
2022-08-09T10:58:00.133Z,2.00
2022-08-09T11:01:11.031Z,4.30
2022-08-09T11:03:51.467Z,2.00
2022-08-09T11:06:25.822Z,28.50
2022-08-09T11:09:03.499Z,6.20
2022-08-09T11:12:10.934Z,2.50
2022-08-09T11:14:44.594Z,8.40
2022-08-09T11:17:53.710Z,16.30
2022-08-09T11:36:35.403Z,1.90
2022-08-09T11:39:08.331Z,4.70
2022-08-09T11:41:46.704Z,5.20
2022-08-09T11:44:21.915Z,5.70
2022-08-09T11:47:01.510Z,4.20
2022-08-09T11:50:52.421Z,3.10
2022-08-09T11:54:01.324Z,3.00
2022-08-09T11:56:41.327Z,13.80
2022-08-09T11:59:34.035Z,1.30
2022-08-09T12:02:36.868Z,2.60
2022-08-09T12:05:17.504Z,3.00
2022-08-09T12:07:55.798Z,3.90
2022-08-09T12:10:39.123Z,3.10
2022-08-09T12:14:08.218Z,2.80
2022-08-09T12:16:25.601Z,13.90
2022-08-09T12:19:03.258Z,3.40
2022-08-09T12:21:39.234Z,3.00
2022-08-09T12:24:28.156Z,7.60
2022-08-09T12:29:10.221Z,1.50
2022-08-09T12:33:02.405Z,5.30
2022-08-09T12:35:41.078Z,11.00
2022-08-09T12:38:29.538Z,2.70
2022-08-09T12:41:12.960Z,2.00
2022-08-09T12:44:04.853Z,4.70
2022-08-09T12:46:41.541Z,2.80
2022-08-09T12:49:16.957Z,3.40
2022-08-09T12:52:02.181Z,5.20
2022-08-09T12:56:10.734Z,2.10
2022-08-09T12:57:48.584Z,3.20
2022-08-09T13:00:25.669Z,3.50
2022-08-09T13:03:00.845Z,2.10
2022-08-09T13:05:51.797Z,3.10
2022-08-09T13:08:58.605Z,3.70
2022-08-09T13:14:43.664Z,2.50
2022-08-09T13:17:03.834Z,1.80
2022-08-09T13:20:08.938Z,4.90
2022-08-09T13:23:00.132Z,3.70
2022-08-09T13:25:28.094Z,3.90
2022-08-09T13:28:14.061Z,6.20
2022-08-09T13:32:17.164Z,1.80
2022-08-09T13:34:04.287Z,3.90
2022-08-09T13:36:43.181Z,2.60
2022-08-09T13:41:55.412Z,2.70
2022-08-09T13:42:13.497Z,2.10
2022-08-09T13:44:48.613Z,6.10
2022-08-09T13:47:33.097Z,3.70
2022-08-09T13:50:31.205Z,6.00
2022-08-09T13:53:07.311Z,2.70
2022-08-09T13:55:44.773Z,5.20
2022-08-09T13:58:22.124Z,3.00
2022-08-09T14:00:58.795Z,3.80
2022-08-09T14:04:02.601Z,5.30
2022-08-09T14:06:29.302Z,3.20
2022-08-09T14:09:07.289Z,1.30
2022-08-09T14:11:47.801Z,2.60
2022-08-09T14:14:26.779Z,2.10
2022-08-09T14:17:02.097Z,4.00
2022-08-09T14:19:34.990Z,4.50
2022-08-09T14:22:09.138Z,3.00
2022-08-09T14:24:53.296Z,2.30
2022-08-09T14:27:27.307Z,3.20
2022-08-09T14:30:37.159Z,1.80
2022-08-09T14:33:04.382Z,4.60
2022-08-09T14:35:52.352Z,3.00
2022-08-09T14:38:28.433Z,4.60
2022-08-09T14:41:12.946Z,4.00
2022-08-09T14:43:54.689Z,4.30
2022-08-09T14:46:54.858Z,5.80
2022-08-09T14:49:23.597Z,3.00
2022-08-09T14:51:58.843Z,3.10
2022-08-09T14:54:31.925Z,4.20
2022-08-09T14:57:10.466Z,4.10
2022-08-09T14:59:48.668Z,3.00
2022-08-09T15:02:23.824Z,3.50
2022-08-09T15:05:01.007Z,2.40
2022-08-09T15:07:35.419Z,6.50
2022-08-09T15:10:13.968Z,6.10
2022-08-09T15:12:47.159Z,3.40
2022-08-09T15:15:21.079Z,4.00
2022-08-09T15:17:54.086Z,3.60
2022-08-09T15:24:02.245Z,2.50
2022-08-09T15:26:18.726Z,3.50
2022-08-09T15:29:05.125Z,3.30
2022-08-09T15:31:41.052Z,5.80
2022-08-09T15:34:32.483Z,1.80
2022-08-09T15:37:37.406Z,5.40
2022-08-09T15:40:15.265Z,4.50
2022-08-09T15:42:54.124Z,4.40
2022-08-09T15:45:29.881Z,3.20
2022-08-09T15:48:07.612Z,8.40
2022-08-09T15:50:56.702Z,3.10
2022-08-09T15:54:05.153Z,2.60
2022-08-09T15:56:28.941Z,5.60
2022-08-09T15:59:03.747Z,7.90
2022-08-09T16:01:39.331Z,5.10
2022-08-09T16:04:13.686Z,3.40
2022-08-09T16:06:50.662Z,3.70
2022-08-09T16:09:32.484Z,3.10
2022-08-09T16:12:17.044Z,2.30
2022-08-09T16:14:50.237Z,3.90
2022-08-09T16:17:23.986Z,2.70
2022-08-09T16:20:03.888Z,2.00
2022-08-09T16:22:42.503Z,4.00
2022-08-09T16:25:37.046Z,2.40
2022-08-09T16:28:13.918Z,4.40
2022-08-09T16:30:58.954Z,2.90
2022-08-09T16:33:34.968Z,4.30
2022-08-09T16:36:14.523Z,5.50
2022-08-09T16:38:53.459Z,3.60
2022-08-09T16:41:39.243Z,2.50
2022-08-09T16:44:21.488Z,3.00
2022-08-09T16:47:04.021Z,3.90
2022-08-09T16:50:29.252Z,4.50
2022-08-09T16:52:47.175Z,3.00
2022-08-09T16:55:23.085Z,33.50
2022-08-09T16:58:08.594Z,5.10
2022-08-09T17:00:42.869Z,5.60
2022-08-09T17:03:21.922Z,5.10
2022-08-09T17:06:08.007Z,2.20
2022-08-09T17:09:03.041Z,10.40
2022-08-09T17:11:42.807Z,3.10
2022-08-09T17:14:27.496Z,10.50
2022-08-09T17:17:05.210Z,9.00
2022-08-09T17:20:30.241Z,4.70
2022-08-09T17:22:52.461Z,4.70
2022-08-09T17:25:26.155Z,5.00
2022-08-09T17:28:10.730Z,8.20
2022-08-09T17:30:47.753Z,13.60
2022-08-09T17:33:22.557Z,18.30
2022-08-09T17:35:56.275Z,22.00
2022-08-09T17:38:34.019Z,21.80
2022-08-09T17:41:11.091Z,19.50
2022-08-09T17:43:50.702Z,16.90
2022-08-09T17:49:28.354Z,15.10
2022-08-09T17:52:04.453Z,21.10
2022-08-09T17:54:39.025Z,16.00
2022-08-09T17:57:20.511Z,14.80
2022-08-09T18:00:11.286Z,5.60
2022-08-09T18:02:50.413Z,7.50
2022-08-09T18:05:43.674Z,11.20
2022-08-09T18:08:17.765Z,18.00
2022-08-09T18:11:02.020Z,23.70
2022-08-09T18:13:39.560Z,12.00
2022-08-09T18:16:29.707Z,21.10
2022-08-09T18:20:54.059Z,13.90
2022-08-09T18:22:16.674Z,14.80
2022-08-09T18:24:51.725Z,6.20
2022-08-09T18:28:01.918Z,10.70
2022-08-09T18:30:39.439Z,6.50
2022-08-09T18:33:15.366Z,11.00
2022-08-09T18:36:00.096Z,11.60
2022-08-09T18:38:34.653Z,6.40
2022-08-09T18:41:08.780Z,7.20
2022-08-09T18:43:53.121Z,7.90
2022-08-09T18:46:46.806Z,9.40
2022-08-09T18:49:19.723Z,9.70
2022-08-09T18:51:54.889Z,14.50
2022-08-09T18:54:30.523Z,6.70
2022-08-09T18:57:07.521Z,9.70
2022-08-09T18:59:51.140Z,5.80
2022-08-09T19:02:31.739Z,5.30
2022-08-09T19:05:19.568Z,6.40
2022-08-09T19:08:10.249Z,6.80
2022-08-09T19:10:46.898Z,4.20
2022-08-09T19:13:37.853Z,6.60
2022-08-09T19:16:12.959Z,5.00
2022-08-09T19:18:46.725Z,6.10
2022-08-09T19:21:21.736Z,5.20
2022-08-09T19:24:32.796Z,8.40
2022-08-09T19:27:06.084Z,12.90
2022-08-09T19:32:31.561Z,46.40
2022-08-09T19:35:04.681Z,44.60
2022-08-09T19:37:54.101Z,29.30
2022-08-09T19:40:34.067Z,38.70
2022-08-09T19:43:10.304Z,30.10
2022-08-09T19:45:54.376Z,11.30
2022-08-09T19:49:02.020Z,6.20
2022-08-09T19:51:23.175Z,5.40
2022-08-09T19:53:56.552Z,6.20
2022-08-09T19:56:29.944Z,5.40
2022-08-09T19:59:18.469Z,6.60
2022-08-09T20:02:03.311Z,8.00
2022-08-09T20:04:47.870Z,5.90
2022-08-09T20:07:57.101Z,6.50
2022-08-09T20:10:27.995Z,7.50
2022-08-09T20:13:10.725Z,6.10
2022-08-09T20:16:35.232Z,5.30
2022-08-09T20:18:36.652Z,7.90
2022-08-09T20:23:41.444Z,12.30
2022-08-09T20:26:15.527Z,27.90
2022-08-09T20:28:49.872Z,29.50
2022-08-09T20:31:22.844Z,15.80
2022-08-09T20:33:58.472Z,15.70
2022-08-09T20:36:35.234Z,14.30
2022-08-09T20:41:59.109Z,5.90
2022-08-09T20:44:36.357Z,8.50
2022-08-09T20:47:23.754Z,9.60
2022-08-09T20:50:02.976Z,7.80
2022-08-09T20:55:10.814Z,4.80
2022-08-09T20:58:08.416Z,24.90
2022-08-09T21:00:44.928Z,16.20
2022-08-09T21:03:21.931Z,11.60
2022-08-09T21:05:59.744Z,14.40
2022-08-09T21:08:32.824Z,7.50
2022-08-09T21:14:02.975Z,10.40
2022-08-09T21:16:36.134Z,8.40
2022-08-09T21:20:18.481Z,16.40
2022-08-09T21:22:05.367Z,11.30
2022-08-09T21:25:25.087Z,13.90
2022-08-09T21:27:58.635Z,10.60
2022-08-09T21:30:32.245Z,11.10
2022-08-09T21:33:06.024Z,11.30
2022-08-09T21:35:50.965Z,8.80
2022-08-09T21:38:31.164Z,9.10
2022-08-09T21:41:04.752Z,10.00
2022-08-09T21:43:56.955Z,8.70
2022-08-09T21:46:32.628Z,9.80
2022-08-09T21:49:07.457Z,11.90
2022-08-09T21:51:43.911Z,10.00
2022-08-09T21:54:18.094Z,11.50
2022-08-09T21:56:54.369Z,8.20
2022-08-09T21:59:28.565Z,12.60
2022-08-09T22:02:29.452Z,13.50
2022-08-09T22:05:22.759Z,21.80
2022-08-09T22:07:56.808Z,22.90
2022-08-09T22:10:31.146Z,13.90
2022-08-09T22:13:07.351Z,20.20
2022-08-09T22:15:44.735Z,24.20
2022-08-09T22:20:53.133Z,26.50
2022-08-09T22:23:35.314Z,12.10
2022-08-09T22:26:33.910Z,18.20
2022-08-09T22:29:10.091Z,34.10
2022-08-09T22:31:50.483Z,34.40
2022-08-09T22:34:30.745Z,51.30
2022-08-09T22:37:03.856Z,40.70
2022-08-09T22:39:56.360Z,23.60
2022-08-09T22:42:31.572Z,25.60
2022-08-09T22:48:10.616Z,23.60
2022-08-09T22:48:11.234Z,9.20
2022-08-09T22:50:55.186Z,18.90
2022-08-09T22:53:44.065Z,24.50
2022-08-09T22:56:31.278Z,28.60
2022-08-09T22:59:57.544Z,31.10
2022-08-09T23:04:32.742Z,22.10
2022-08-09T23:08:01.495Z,15.20
2022-08-09T23:10:16.095Z,27.20
2022-08-09T23:12:48.965Z,15.20
2022-08-09T23:15:21.975Z,11.20
2022-08-09T23:17:54.733Z,18.80
2022-08-09T23:20:29.115Z,27.90
2022-08-09T23:23:01.955Z,15.10
2022-08-09T23:25:34.845Z,19.20
2022-08-09T23:28:15.596Z,20.70
2022-08-09T23:30:49.405Z,14.50
2022-08-09T23:33:25.529Z,20.90
2022-08-09T23:36:04.831Z,9.40
2022-08-09T23:38:49.075Z,8.70
2022-08-09T23:41:28.518Z,9.80
2022-08-09T23:44:06.249Z,10.20
2022-08-09T23:46:39.693Z,20.20
2022-08-09T23:49:13.125Z,20.70
2022-08-09T23:51:46.228Z,19.00
2022-08-09T23:54:19.765Z,21.70
2022-08-09T23:57:03.476Z,21.80
2022-08-09T23:59:50.805Z,24.80
